MDST/STI METAR and TAF weather

Enter ICAO airport designator
Station Type Date Time Source
MDST METAR 2022/06/30 13:00 UTC NOAA

MDST 301300Z 09006KT 9999 SCT022 26/22 Q1018


Station Type Date Time Source
MDST Decoded METAR 2022/06/30 13:00 UTC NOAA

Santiago, Dominican Republic (MDST) 19-27N 070-42W
Jun 30, 2022 - 09:00 AM EDT / 2022.06.30 1300 UTC
Wind: from the E (090 degrees) at 7 MPH (6 KT):0
Visibility: greater than 7 mile(s):0
Sky conditions: partly cloudy
Temperature: 78 F (26 C)
Dew Point: 71 F (22 C)
Relative Humidity: 78%
Pressure (altimeter): 30.06 in. Hg (1018 hPa)
ob: MDST 301300Z 09006KT 9999 SCT022 26/22 Q1018
cycle: 13

Station Type Date Time Source
MDST TAF 2022/06/30 12:15 UTC NOAA

TAF MDST 301000Z 3012/0112 12010KT 9999 SCT020 PROB30 3012/3018 7000 -RA SCT016 BKN070

Example: see airport list